createdAt,value
2022-10-25T00:02:00.372Z,18.20
2022-10-25T00:04:46.993Z,18.20
2022-10-25T00:07:32.779Z,18.20
2022-10-25T00:10:21.138Z,18.20
2022-10-25T00:13:10.512Z,18.20
2022-10-25T00:15:56.038Z,18.20
2022-10-25T00:18:41.531Z,18.20
2022-10-25T00:21:26.958Z,18.20
2022-10-25T00:24:13.481Z,18.20
2022-10-25T00:26:59.080Z,18.20
2022-10-25T00:29:44.595Z,18.20
2022-10-25T00:32:30.310Z,18.20
2022-10-25T00:35:15.917Z,18.20
2022-10-25T00:38:02.831Z,18.20
2022-10-25T00:40:48.643Z,18.20
2022-10-25T00:43:40.848Z,18.20
2022-10-25T00:46:32.092Z,18.20
2022-10-25T00:49:21.818Z,18.10
2022-10-25T00:52:09.107Z,18.10
2022-10-25T00:54:54.984Z,18.10
2022-10-25T00:57:50.399Z,18.10
2022-10-25T01:00:36.561Z,18.10
2022-10-25T01:03:24.157Z,18.10
2022-10-25T01:06:18.032Z,18.10
2022-10-25T01:09:04.376Z,18.10
2022-10-25T01:11:49.897Z,18.10
2022-10-25T01:14:38.328Z,18.10
2022-10-25T01:17:41.411Z,18.10
2022-10-25T01:21:11.143Z,18.10
2022-10-25T01:24:08.764Z,18.10
2022-10-25T01:27:12.293Z,18.00
2022-10-25T01:30:14.276Z,18.00
2022-10-25T01:33:15.092Z,18.10
2022-10-25T01:36:23.729Z,18.00
2022-10-25T01:39:14.139Z,18.00
2022-10-25T01:42:24.345Z,18.00
2022-10-25T01:45:13.665Z,18.00
2022-10-25T01:48:22.901Z,18.00
2022-10-25T01:51:14.699Z,18.00
2022-10-25T01:54:00.712Z,18.00
2022-10-25T01:56:52.660Z,18.00
2022-10-25T01:59:50.026Z,18.00
2022-10-25T02:02:44.892Z,18.00
2022-10-25T02:05:38.751Z,18.00
2022-10-25T02:08:48.146Z,18.00
2022-10-25T02:11:34.335Z,18.10
2022-10-25T02:14:59.543Z,18.00
2022-10-25T02:17:55.145Z,18.00
2022-10-25T02:20:45.865Z,18.00
2022-10-25T02:23:35.449Z,18.00
2022-10-25T02:26:22.086Z,18.00
2022-10-25T02:29:08.456Z,18.00
2022-10-25T02:31:54.344Z,18.00
2022-10-25T02:34:40.503Z,18.00
2022-10-25T02:37:26.169Z,18.00
2022-10-25T02:40:12.314Z,18.00
2022-10-25T02:42:58.244Z,18.00
2022-10-25T02:45:43.646Z,18.00
2022-10-25T02:48:29.068Z,18.00
2022-10-25T02:51:15.586Z,18.00
2022-10-25T02:54:01.278Z,18.00
2022-10-25T02:56:46.909Z,18.00
2022-10-25T02:59:32.457Z,18.00
2022-10-25T03:02:18.834Z,18.00
2022-10-25T03:05:04.599Z,18.00
2022-10-25T03:07:50.268Z,18.00
2022-10-25T03:10:37.387Z,18.00
2022-10-25T03:13:23.413Z,18.00
2022-10-25T03:16:09.549Z,18.00
2022-10-25T03:18:58.161Z,18.00
2022-10-25T03:21:43.677Z,18.00
2022-10-25T03:24:29.220Z,18.00
2022-10-25T03:27:14.761Z,18.00
2022-10-25T03:30:00.114Z,18.00
2022-10-25T03:32:45.495Z,18.00
2022-10-25T03:35:31.088Z,18.00
2022-10-25T03:38:16.582Z,18.00
2022-10-25T03:41:02.447Z,18.00
2022-10-25T03:43:47.930Z,18.00
2022-10-25T03:46:33.354Z,18.00
2022-10-25T03:49:18.946Z,18.00
2022-10-25T03:52:07.264Z,18.00
2022-10-25T03:54:52.886Z,18.00
2022-10-25T03:57:38.609Z,18.00
2022-10-25T04:00:24.113Z,17.90
2022-10-25T04:03:09.748Z,17.90
2022-10-25T04:05:55.143Z,17.90
2022-10-25T04:08:40.703Z,17.90
2022-10-25T04:11:26.184Z,17.90
2022-10-25T04:14:11.697Z,17.90
2022-10-25T04:16:57.266Z,17.90
2022-10-25T04:19:42.779Z,17.90
2022-10-25T04:22:28.400Z,17.90
2022-10-25T04:25:13.765Z,17.90
2022-10-25T04:28:00.388Z,17.90
2022-10-25T04:30:46.279Z,17.90
2022-10-25T04:33:31.672Z,17.90
2022-10-25T04:36:17.339Z,17.90
2022-10-25T04:39:02.978Z,18.00
2022-10-25T04:41:48.523Z,17.90
2022-10-25T04:44:34.127Z,18.00
2022-10-25T04:47:19.671Z,18.00
2022-10-25T04:50:05.999Z,18.00
2022-10-25T04:52:51.435Z,18.00
2022-10-25T04:55:37.069Z,18.00
2022-10-25T04:58:27.415Z,17.90
2022-10-25T05:01:18.822Z,17.70
2022-10-25T05:04:04.653Z,17.60
2022-10-25T05:06:50.195Z,17.40
2022-10-25T05:09:35.620Z,17.30
2022-10-25T05:12:23.417Z,17.20
2022-10-25T05:15:09.870Z,17.10
2022-10-25T05:17:59.963Z,17.10
2022-10-25T05:20:52.450Z,17.00
2022-10-25T05:23:38.605Z,17.00
2022-10-25T05:26:24.243Z,16.90
2022-10-25T05:29:13.824Z,16.80
2022-10-25T05:31:59.855Z,16.80
2022-10-25T05:34:45.182Z,16.80
2022-10-25T05:37:31.561Z,16.70
2022-10-25T05:40:17.452Z,16.70
2022-10-25T05:43:02.869Z,16.80
2022-10-25T05:45:48.542Z,16.70
2022-10-25T05:48:35.610Z,16.70
2022-10-25T05:51:35.784Z,16.70
2022-10-25T05:54:23.516Z,16.70
2022-10-25T05:57:09.416Z,16.60
2022-10-25T05:59:55.091Z,16.60
2022-10-25T06:02:40.689Z,16.60
2022-10-25T06:05:26.621Z,16.60
2022-10-25T06:08:12.295Z,16.60
2022-10-25T06:11:05.679Z,16.50
2022-10-25T06:13:51.360Z,16.50
2022-10-25T06:16:38.124Z,16.60
2022-10-25T06:19:23.636Z,16.50
2022-10-25T06:22:09.174Z,16.40
2022-10-25T06:24:54.607Z,16.30
2022-10-25T06:27:40.207Z,16.20
2022-10-25T06:30:25.685Z,16.20
2022-10-25T06:33:11.255Z,16.20
2022-10-25T06:35:57.640Z,16.00
2022-10-25T06:38:43.758Z,16.00
2022-10-25T06:41:31.432Z,16.00
2022-10-25T06:44:16.827Z,15.90
2022-10-25T06:47:16.811Z,15.90
2022-10-25T06:50:03.343Z,15.90
2022-10-25T06:52:49.263Z,15.90
2022-10-25T06:55:35.209Z,15.90
2022-10-25T06:58:20.848Z,15.90
2022-10-25T07:01:12.213Z,15.80
2022-10-25T07:03:58.441Z,15.90
2022-10-25T07:06:43.918Z,16.00
2022-10-25T07:09:29.473Z,15.90
2022-10-25T07:12:15.327Z,15.90
2022-10-25T07:15:00.950Z,15.90
2022-10-25T07:17:46.608Z,15.90
2022-10-25T07:20:32.357Z,15.90
2022-10-25T07:23:18.137Z,15.90
2022-10-25T07:26:03.996Z,15.90
2022-10-25T07:28:51.667Z,15.90
2022-10-25T07:31:44.220Z,15.90
2022-10-25T07:34:30.024Z,15.90
2022-10-25T07:37:15.609Z,15.90
2022-10-25T07:40:00.965Z,15.90
2022-10-25T07:42:48.796Z,15.90
2022-10-25T07:45:34.344Z,16.00
2022-10-25T07:48:19.964Z,16.00
2022-10-25T07:51:07.579Z,16.10
2022-10-25T07:53:53.743Z,16.10
2022-10-25T07:56:39.119Z,16.20
2022-10-25T07:59:25.043Z,16.30
2022-10-25T08:02:12.574Z,16.40
2022-10-25T08:04:58.273Z,16.40
2022-10-25T08:07:43.797Z,16.40
2022-10-25T08:10:29.324Z,16.30
2022-10-25T08:13:15.184Z,16.40
2022-10-25T08:16:01.173Z,16.40
2022-10-25T08:18:46.958Z,16.40
2022-10-25T08:21:32.732Z,16.50
2022-10-25T08:27:08.779Z,16.50
2022-10-25T08:29:54.456Z,16.50
2022-10-25T08:32:40.111Z,16.60
2022-10-25T08:35:25.455Z,16.60
2022-10-25T08:38:10.903Z,16.60
2022-10-25T08:41:11.960Z,16.60
2022-10-25T08:44:26.400Z,16.60
2022-10-25T08:47:20.785Z,16.60
2022-10-25T08:50:19.304Z,16.60
2022-10-25T08:53:11.487Z,16.60
2022-10-25T08:56:15.242Z,16.70
2022-10-25T08:59:03.053Z,16.70
2022-10-25T09:01:54.464Z,16.80
2022-10-25T09:04:40.114Z,16.80
2022-10-25T09:07:52.384Z,16.80
2022-10-25T09:11:10.764Z,16.80
2022-10-25T09:14:13.732Z,16.80
2022-10-25T09:17:27.596Z,16.80
2022-10-25T09:20:26.575Z,16.90
2022-10-25T09:23:31.856Z,16.90
2022-10-25T09:26:27.956Z,16.90
2022-10-25T09:29:35.514Z,17.00
2022-10-25T09:32:38.512Z,17.00
2022-10-25T09:35:29.723Z,17.00
2022-10-25T09:38:23.658Z,17.00
2022-10-25T09:41:19.399Z,17.00
2022-10-25T09:44:10.733Z,17.00
2022-10-25T09:47:18.237Z,17.00
2022-10-25T09:50:06.582Z,17.00
2022-10-25T09:53:11.128Z,17.00
2022-10-25T09:56:03.132Z,17.00
2022-10-25T09:58:49.074Z,16.90
2022-10-25T10:01:38.909Z,17.00
2022-10-25T10:04:33.296Z,17.00
2022-10-25T10:07:50.042Z,16.90
2022-10-25T10:10:38.193Z,16.90
2022-10-25T10:13:41.521Z,16.90
2022-10-25T10:16:31.800Z,16.90
2022-10-25T10:19:30.005Z,16.90
2022-10-25T10:22:16.740Z,16.90
2022-10-25T10:25:03.564Z,16.90
2022-10-25T10:27:50.975Z,17.00
2022-10-25T10:30:38.943Z,17.00
2022-10-25T10:33:30.019Z,17.10
2022-10-25T10:36:31.053Z,17.20
2022-10-25T10:39:22.266Z,17.30
2022-10-25T10:42:19.810Z,17.40
2022-10-25T10:45:08.717Z,17.40
2022-10-25T10:47:59.583Z,17.50
2022-10-25T10:50:49.985Z,17.70
2022-10-25T10:53:35.992Z,17.80
2022-10-25T10:56:25.758Z,17.90
2022-10-25T10:59:36.444Z,18.00
2022-10-25T11:02:42.398Z,18.10
2022-10-25T11:05:37.506Z,18.30
2022-10-25T11:08:23.164Z,18.40
2022-10-25T11:11:21.575Z,18.50
2022-10-25T11:14:25.477Z,18.60
2022-10-25T11:17:27.676Z,18.70
2022-10-25T11:20:22.212Z,18.70
2022-10-25T11:23:23.407Z,18.80
2022-10-25T11:26:25.854Z,18.80
2022-10-25T11:29:42.532Z,18.80
2022-10-25T11:32:31.391Z,18.80
2022-10-25T11:35:44.880Z,18.80
2022-10-25T11:38:42.287Z,18.80
2022-10-25T11:41:53.522Z,19.50
2022-10-25T11:44:51.344Z,19.00
2022-10-25T11:47:43.309Z,19.00
2022-10-25T11:50:45.984Z,19.00
2022-10-25T11:53:41.284Z,19.10
2022-10-25T11:56:55.608Z,19.10
2022-10-25T11:59:54.072Z,19.10
2022-10-25T12:02:58.574Z,19.10
2022-10-25T12:05:51.339Z,19.10
2022-10-25T12:09:01.537Z,19.00
2022-10-25T12:11:57.184Z,19.00
2022-10-25T12:14:49.350Z,19.00
2022-10-25T12:17:35.573Z,19.00
2022-10-25T12:20:27.417Z,19.00
2022-10-25T12:23:21.156Z,19.00
2022-10-25T12:26:12.373Z,19.10
2022-10-25T12:29:02.199Z,19.10
2022-10-25T12:31:56.851Z,19.20
2022-10-25T12:34:52.105Z,19.20
2022-10-25T12:37:45.052Z,19.20
2022-10-25T12:40:41.592Z,19.20
2022-10-25T12:43:55.733Z,19.20
2022-10-25T12:46:51.717Z,19.20
2022-10-25T12:49:51.909Z,19.20
2022-10-25T12:52:40.600Z,19.20
2022-10-25T12:55:33.549Z,19.20
2022-10-25T12:58:37.755Z,19.10
2022-10-25T13:01:45.220Z,19.20
2022-10-25T13:04:38.161Z,19.30
2022-10-25T13:07:25.009Z,19.40
2022-10-25T13:10:23.287Z,19.50
2022-10-25T13:13:20.573Z,19.70
2022-10-25T13:16:11.201Z,19.80
2022-10-25T13:19:36.225Z,20.00
2022-10-25T13:22:41.522Z,20.20
2022-10-25T13:25:33.670Z,20.40
2022-10-25T13:28:31.572Z,20.50
2022-10-25T13:31:36.431Z,20.60
2022-10-25T13:34:30.198Z,20.80
2022-10-25T13:37:31.132Z,21.00
2022-10-25T13:40:31.252Z,21.00
2022-10-25T13:43:21.725Z,21.10
2022-10-25T13:46:11.368Z,21.20
2022-10-25T13:48:57.617Z,21.20
2022-10-25T13:51:47.121Z,21.30
2022-10-25T13:54:42.702Z,21.30
2022-10-25T13:57:50.254Z,21.30
2022-10-25T14:00:42.201Z,21.40
2022-10-25T14:03:45.803Z,21.30
2022-10-25T14:06:36.944Z,21.30
2022-10-25T14:09:36.411Z,21.20
2022-10-25T14:12:23.479Z,21.20
2022-10-25T14:15:39.284Z,21.20
2022-10-25T14:18:27.011Z,21.10
2022-10-25T14:21:13.020Z,21.00
2022-10-25T14:24:03.645Z,20.90
2022-10-25T14:26:55.592Z,20.90
2022-10-25T14:29:44.008Z,20.80
2022-10-25T14:32:29.610Z,20.70
2022-10-25T14:35:15.532Z,20.60
2022-10-25T14:38:03.726Z,20.50
2022-10-25T14:40:58.114Z,20.40
2022-10-25T14:43:44.301Z,20.40
2022-10-25T14:46:30.797Z,20.30
2022-10-25T14:49:16.624Z,20.30
2022-10-25T14:52:08.006Z,20.20
2022-10-25T14:55:05.985Z,20.20
2022-10-25T14:57:51.935Z,20.20
2022-10-25T15:00:37.990Z,20.10
2022-10-25T15:03:27.789Z,20.10
2022-10-25T15:06:14.765Z,20.00
2022-10-25T15:12:10.829Z,20.00
2022-10-25T15:14:59.283Z,19.80
2022-10-25T15:17:51.605Z,19.80
2022-10-25T15:20:37.175Z,19.70
2022-10-25T15:23:23.046Z,19.60
2022-10-25T15:26:20.841Z,19.60
2022-10-25T15:29:06.695Z,19.50
2022-10-25T15:31:52.449Z,19.50
2022-10-25T15:34:38.747Z,19.50
2022-10-25T15:37:27.579Z,19.40
2022-10-25T15:40:15.992Z,19.30
2022-10-25T15:43:01.459Z,19.30
2022-10-25T15:45:47.375Z,19.20
2022-10-25T15:48:33.895Z,19.20
2022-10-25T15:51:20.068Z,19.20
2022-10-25T15:54:11.359Z,19.20
2022-10-25T15:56:57.167Z,19.10
2022-10-25T15:59:42.741Z,19.10
2022-10-25T16:02:31.838Z,19.00
2022-10-25T16:05:22.527Z,19.00
2022-10-25T16:08:08.992Z,19.00
2022-10-25T16:10:54.939Z,18.90
2022-10-25T16:13:40.968Z,18.90
2022-10-25T16:16:40.452Z,18.80
2022-10-25T16:19:28.384Z,18.80
2022-10-25T16:22:14.252Z,18.80
2022-10-25T16:24:59.702Z,18.70
2022-10-25T16:27:47.067Z,18.60
2022-10-25T16:30:35.835Z,18.60
2022-10-25T16:33:23.482Z,18.50
2022-10-25T16:36:11.141Z,18.50
2022-10-25T16:38:56.775Z,18.40
2022-10-25T16:41:45.035Z,18.40
2022-10-25T16:44:30.948Z,18.30
2022-10-25T16:47:16.811Z,18.20
2022-10-25T16:50:02.715Z,18.20
2022-10-25T16:52:48.334Z,18.10
2022-10-25T16:55:34.294Z,18.10
2022-10-25T16:58:19.987Z,18.00
2022-10-25T17:01:28.316Z,18.00
2022-10-25T17:04:14.651Z,17.90
2022-10-25T17:07:00.856Z,17.90
2022-10-25T17:09:46.611Z,17.80
2022-10-25T17:12:32.171Z,17.70
2022-10-25T17:15:17.982Z,17.70
2022-10-25T17:18:03.844Z,17.70
2022-10-25T17:20:50.284Z,17.60
2022-10-25T17:23:36.518Z,17.50
2022-10-25T17:26:21.886Z,17.50
2022-10-25T17:29:07.923Z,17.50
2022-10-25T17:31:53.676Z,17.30
2022-10-25T17:34:39.567Z,17.30
2022-10-25T17:37:25.252Z,17.20
2022-10-25T17:40:12.213Z,17.20
2022-10-25T17:42:57.819Z,17.10
2022-10-25T17:45:44.878Z,17.10
2022-10-25T17:48:30.953Z,17.00
2022-10-25T17:51:16.718Z,16.90
2022-10-25T17:54:02.516Z,16.90
2022-10-25T17:56:48.539Z,16.90
2022-10-25T17:59:35.723Z,16.80
2022-10-25T18:02:21.573Z,16.80
2022-10-25T18:05:22.839Z,16.70
2022-10-25T18:08:08.681Z,16.70
2022-10-25T18:10:54.741Z,16.60
2022-10-25T18:13:41.697Z,16.60
2022-10-25T18:16:30.563Z,16.50
2022-10-25T18:19:16.502Z,16.50
2022-10-25T18:22:04.181Z,16.50
2022-10-25T18:24:49.845Z,16.40
2022-10-25T18:27:35.583Z,16.40
2022-10-25T18:30:21.901Z,16.30
2022-10-25T18:33:13.395Z,16.20
2022-10-25T18:36:04.253Z,16.20
2022-10-25T18:38:49.912Z,16.20
2022-10-25T18:41:36.191Z,16.10
2022-10-25T18:44:22.441Z,16.10
2022-10-25T18:47:07.825Z,16.10
2022-10-25T18:49:53.273Z,16.10
2022-10-25T18:52:38.629Z,16.00
2022-10-25T18:55:26.702Z,16.10
2022-10-25T18:58:14.976Z,16.10
2022-10-25T19:01:08.699Z,16.10
2022-10-25T19:03:57.083Z,16.20
2022-10-25T19:06:42.461Z,16.20
2022-10-25T19:09:27.937Z,16.20
2022-10-25T19:12:13.586Z,16.10
2022-10-25T19:14:59.016Z,16.10
2022-10-25T19:17:44.605Z,16.10
2022-10-25T19:20:30.003Z,16.00
2022-10-25T19:23:15.576Z,16.00
2022-10-25T19:26:06.469Z,16.00
2022-10-25T19:28:59.532Z,16.00
2022-10-25T19:31:45.144Z,16.00
2022-10-25T19:34:30.399Z,16.00
2022-10-25T19:37:15.902Z,15.90
2022-10-25T19:40:02.780Z,16.00
2022-10-25T19:42:48.528Z,16.00
2022-10-25T19:45:34.429Z,16.00
2022-10-25T19:48:20.834Z,16.00
2022-10-25T19:51:08.562Z,16.00
2022-10-25T19:53:54.220Z,15.90
2022-10-25T19:56:39.944Z,15.90
2022-10-25T19:59:25.771Z,15.90
2022-10-25T20:02:11.626Z,15.90
2022-10-25T20:04:57.794Z,15.80
2022-10-25T20:07:43.448Z,15.80
2022-10-25T20:10:28.944Z,15.70
2022-10-25T20:13:15.129Z,15.70
2022-10-25T20:16:01.579Z,15.60
2022-10-25T20:18:47.622Z,15.60
2022-10-25T20:21:36.004Z,15.60
2022-10-25T20:24:21.669Z,15.50
2022-10-25T20:27:07.240Z,15.50
2022-10-25T20:29:52.789Z,15.40
2022-10-25T20:32:38.239Z,15.40
2022-10-25T20:35:26.270Z,15.40
2022-10-25T20:38:13.210Z,15.30
2022-10-25T20:41:10.345Z,15.30
2022-10-25T20:43:58.260Z,15.20
2022-10-25T20:46:43.815Z,15.20
2022-10-25T20:49:29.294Z,15.10
2022-10-25T20:52:15.289Z,15.10
2022-10-25T20:55:00.769Z,15.00
2022-10-25T20:57:46.807Z,15.00
2022-10-25T21:00:32.953Z,14.90
2022-10-25T21:03:18.616Z,14.90
2022-10-25T21:06:06.160Z,14.90
2022-10-25T21:08:51.792Z,14.80
2022-10-25T21:11:37.252Z,14.80
2022-10-25T21:14:22.813Z,14.70
2022-10-25T21:17:08.406Z,14.80
2022-10-25T21:19:54.163Z,14.70
2022-10-25T21:22:41.168Z,14.70
2022-10-25T21:25:26.577Z,14.60
2022-10-25T21:28:11.935Z,14.60
2022-10-25T21:31:02.059Z,14.60
2022-10-25T21:33:50.141Z,14.60
2022-10-25T21:36:36.898Z,14.50
2022-10-25T21:39:24.037Z,14.50
2022-10-25T21:42:10.220Z,14.40
2022-10-25T21:44:55.978Z,14.40
2022-10-25T21:47:41.517Z,14.40
2022-10-25T21:50:26.882Z,14.30
2022-10-25T21:53:13.099Z,14.30
2022-10-25T21:56:15.750Z,14.20
2022-10-25T21:59:01.415Z,14.20
2022-10-25T22:01:47.157Z,14.20
2022-10-25T22:04:34.121Z,14.20
2022-10-25T22:07:19.825Z,14.10
2022-10-25T22:10:05.773Z,14.10
2022-10-25T22:12:51.455Z,14.10
2022-10-25T22:15:37.212Z,14.10
2022-10-25T22:18:22.632Z,14.00
2022-10-25T22:21:12.056Z,14.00
2022-10-25T22:23:58.165Z,14.00
2022-10-25T22:26:45.417Z,13.90
2022-10-25T22:29:30.856Z,13.90
2022-10-25T22:32:16.337Z,13.90
2022-10-25T22:35:01.766Z,13.90
2022-10-25T22:37:47.515Z,13.90
2022-10-25T22:40:33.496Z,13.80
2022-10-25T22:43:18.968Z,13.80
2022-10-25T22:46:06.755Z,13.80
2022-10-25T22:48:57.651Z,13.80
2022-10-25T22:51:43.070Z,13.80
2022-10-25T22:54:29.149Z,13.80
2022-10-25T22:57:14.689Z,13.80
2022-10-25T23:00:00.215Z,13.70
2022-10-25T23:02:46.057Z,13.80
2022-10-25T23:05:31.597Z,13.70
2022-10-25T23:08:16.964Z,13.70
2022-10-25T23:11:05.393Z,13.70
2022-10-25T23:13:51.248Z,13.70
2022-10-25T23:16:36.965Z,13.60
2022-10-25T23:19:22.507Z,13.60
2022-10-25T23:22:07.920Z,13.50
2022-10-25T23:24:53.498Z,13.50
2022-10-25T23:27:39.044Z,13.50
2022-10-25T23:30:26.881Z,13.50
2022-10-25T23:33:13.433Z,13.40
2022-10-25T23:36:09.483Z,13.40
2022-10-25T23:38:56.249Z,13.40
2022-10-25T23:41:43.352Z,13.30
2022-10-25T23:44:28.768Z,13.30
2022-10-25T23:47:14.241Z,13.30
2022-10-25T23:49:59.757Z,13.30
2022-10-25T23:52:45.787Z,13.20
2022-10-25T23:55:31.632Z,13.30
2022-10-25T23:58:17.368Z,13.30
